createdAt,value
2022-08-01T00:00:21.562Z,87.10
2022-08-01T00:04:23.294Z,87.20
2022-08-01T00:08:25.037Z,87.60
2022-08-01T00:12:26.840Z,88.00
2022-08-01T00:16:29.186Z,87.40
2022-08-01T00:20:30.921Z,87.10
2022-08-01T00:24:32.628Z,85.60
2022-08-01T00:28:36.023Z,85.50
2022-08-01T00:32:37.746Z,84.40
2022-08-01T00:36:39.604Z,84.80
2022-08-01T00:40:41.410Z,84.30
2022-08-01T00:44:43.191Z,84.00
2022-08-01T00:48:45.006Z,83.30
2022-08-01T00:52:51.217Z,83.80
2022-08-01T00:56:54.617Z,84.10
2022-08-01T01:00:56.463Z,83.70
2022-08-01T01:05:00.350Z,83.90
2022-08-01T01:09:23.707Z,84.00
2022-08-01T01:13:50.509Z,83.70
2022-08-01T01:18:03.576Z,84.00
2022-08-01T01:22:26.769Z,84.00
2022-08-01T01:26:32.821Z,83.60
2022-08-01T01:30:35.196Z,82.70
2022-08-01T01:34:43.901Z,82.80
2022-08-01T01:38:47.009Z,83.60
2022-08-01T01:42:49.872Z,82.90
2022-08-01T01:46:53.310Z,83.00
2022-08-01T01:51:00.688Z,83.10
2022-08-01T01:55:06.623Z,83.50
2022-08-01T01:59:08.394Z,83.80
2022-08-01T02:03:12.576Z,84.30
2022-08-01T02:07:20.232Z,85.20
2022-08-01T02:11:23.082Z,84.60
2022-08-01T02:15:25.918Z,84.50
2022-08-01T02:19:28.182Z,84.90
2022-08-01T02:23:34.225Z,84.40
2022-08-01T02:27:53.109Z,84.00
2022-08-01T02:31:59.012Z,84.70
2022-08-01T02:36:31.326Z,84.30
2022-08-01T02:40:29.358Z,84.60
2022-08-01T02:44:37.745Z,85.20
2022-08-01T02:48:41.160Z,85.70
2022-08-01T02:52:44.819Z,86.00
2022-08-01T02:56:49.280Z,86.00
2022-08-01T03:00:51.945Z,85.60
2022-08-01T03:04:57.204Z,85.30
2022-08-01T03:09:01.007Z,84.90
2022-08-01T03:13:05.106Z,85.70
2022-08-01T03:17:09.175Z,85.10
2022-08-01T03:21:13.045Z,85.20
2022-08-01T03:25:16.834Z,85.70
2022-08-01T03:29:23.410Z,86.10
2022-08-01T03:33:25.208Z,87.60
2022-08-01T03:37:30.671Z,86.90
2022-08-01T03:41:38.728Z,86.90
2022-08-01T03:45:46.083Z,86.90
2022-08-01T03:49:49.817Z,87.20
2022-08-01T03:53:52.386Z,88.20
2022-08-01T03:57:54.716Z,88.20
2022-08-01T04:01:57.253Z,88.10
2022-08-01T04:05:59.413Z,88.00
2022-08-01T04:10:01.383Z,88.40
2022-08-01T04:14:04.382Z,88.20
2022-08-01T04:18:11.047Z,88.40
2022-08-01T04:22:16.632Z,88.90
2022-08-01T04:26:20.874Z,88.60
2022-08-01T04:30:27.251Z,88.40
2022-08-01T04:34:31.635Z,88.30
2022-08-01T04:38:37.711Z,88.10
2022-08-01T04:42:39.961Z,87.80
2022-08-01T04:46:42.085Z,89.00
2022-08-01T04:50:43.960Z,89.50
2022-08-01T04:54:47.445Z,89.70
2022-08-01T04:59:09.923Z,89.50
2022-08-01T05:03:19.602Z,90.10
2022-08-01T05:07:21.409Z,89.40
2022-08-01T05:11:23.198Z,90.10
2022-08-01T05:15:26.117Z,89.20
2022-08-01T05:19:27.888Z,90.40
2022-08-01T05:23:42.540Z,90.00
2022-08-01T05:27:45.234Z,90.70
2022-08-01T05:31:46.985Z,90.20
2022-08-01T05:35:49.452Z,90.00
2022-08-01T05:39:51.310Z,90.50
2022-08-01T05:43:53.075Z,90.50
2022-08-01T05:47:54.862Z,90.60
2022-08-01T05:51:56.646Z,90.80
2022-08-01T05:55:58.354Z,91.10
2022-08-01T06:00:00.054Z,90.90
2022-08-01T06:04:01.816Z,90.70
2022-08-01T06:08:04.073Z,90.90
2022-08-01T06:12:06.675Z,90.80
2022-08-01T06:16:08.735Z,90.30
2022-08-01T06:20:11.278Z,91.10
2022-08-01T06:24:12.991Z,91.90
2022-08-01T06:28:16.048Z,91.70
2022-08-01T06:32:20.182Z,91.40
2022-08-01T06:36:29.107Z,91.70
2022-08-01T06:40:31.005Z,91.50
2022-08-01T06:44:32.721Z,91.90
2022-08-01T06:48:36.303Z,91.40
2022-08-01T06:52:38.766Z,91.50
2022-08-01T06:56:40.539Z,91.40
2022-08-01T07:00:43.269Z,91.40
2022-08-01T07:04:45.287Z,91.40
2022-08-01T07:08:47.061Z,91.20
2022-08-01T07:12:48.787Z,91.20
2022-08-01T07:16:51.566Z,91.50
2022-08-01T07:20:53.498Z,91.80
2022-08-01T07:24:55.255Z,91.30
2022-08-01T07:28:56.997Z,90.60
2022-08-01T07:32:58.822Z,90.40
2022-08-01T07:37:00.597Z,90.00
2022-08-01T07:41:03.457Z,89.00
2022-08-01T07:45:05.580Z,89.30
2022-08-01T07:49:07.370Z,89.20
2022-08-01T07:53:11.208Z,90.10
2022-08-01T07:57:12.934Z,90.10
2022-08-01T08:01:14.768Z,90.20
2022-08-01T08:05:16.557Z,89.50
2022-08-01T08:09:38.309Z,90.20
2022-08-01T08:13:40.177Z,90.50
2022-08-01T08:17:41.857Z,90.60
2022-08-01T08:21:43.898Z,90.20
2022-08-01T08:25:45.639Z,89.90
2022-08-01T08:29:47.542Z,89.20
2022-08-01T08:33:49.509Z,89.70
2022-08-01T08:37:51.540Z,89.80
2022-08-01T08:42:00.425Z,90.10
2022-08-01T08:46:02.667Z,90.10
2022-08-01T08:50:05.203Z,89.80
2022-08-01T08:54:08.343Z,90.40
2022-08-01T08:58:17.466Z,90.30
2022-08-01T09:02:19.411Z,90.30
2022-08-01T09:06:21.369Z,90.60
2022-08-01T09:10:23.526Z,90.50
2022-08-01T09:14:31.622Z,90.40
2022-08-01T09:18:40.425Z,90.50
2022-08-01T09:22:47.474Z,90.20
2022-08-01T09:26:51.565Z,90.30
2022-08-01T09:30:53.385Z,90.50
2022-08-01T09:34:55.191Z,90.90
2022-08-01T09:39:14.083Z,89.20
2022-08-01T09:43:15.902Z,88.80
2022-08-01T09:47:19.869Z,89.50
2022-08-01T09:51:59.327Z,88.40
2022-08-01T09:56:11.888Z,87.20
2022-08-01T10:00:35.753Z,87.50
2022-08-01T10:04:50.811Z,87.80
2022-08-01T10:08:52.722Z,88.20
2022-08-01T10:12:56.712Z,87.10
2022-08-01T10:17:05.086Z,87.70
2022-08-01T10:21:08.843Z,87.00
2022-08-01T10:25:17.285Z,87.80
2022-08-01T10:30:05.189Z,86.90
2022-08-01T10:34:10.229Z,86.30
2022-08-01T10:38:15.886Z,86.20
2022-08-01T10:42:19.646Z,86.10
2022-08-01T10:46:21.423Z,86.10
2022-08-01T10:50:32.750Z,84.20
2022-08-01T10:54:52.488Z,84.30
2022-08-01T10:59:06.747Z,85.50
2022-08-01T11:03:13.770Z,83.70
2022-08-01T11:07:25.696Z,81.90
2022-08-01T11:11:28.789Z,81.30
2022-08-01T11:15:50.018Z,85.90
2022-08-01T11:20:14.407Z,86.80
2022-08-01T11:24:16.638Z,88.80
2022-08-01T11:28:29.110Z,87.80
2022-08-01T11:32:38.603Z,89.70
2022-08-01T11:37:30.677Z,88.90
2022-08-01T11:41:37.270Z,88.70
2022-08-01T11:45:49.168Z,87.00
2022-08-01T11:49:57.210Z,87.70
2022-08-01T11:53:59.937Z,87.80
2022-08-01T11:58:08.963Z,87.40
2022-08-01T12:02:31.124Z,87.40
2022-08-01T12:06:32.917Z,85.00
2022-08-01T12:10:49.526Z,86.20
2022-08-01T12:15:01.204Z,84.50
2022-08-01T12:19:03.333Z,84.00
2022-08-01T12:23:09.529Z,84.20
2022-08-01T12:27:13.336Z,83.40
2022-08-01T12:31:15.253Z,82.70
2022-08-01T12:35:28.410Z,81.90
2022-08-01T12:39:32.768Z,81.70
2022-08-01T12:43:35.513Z,80.90
2022-08-01T12:47:39.274Z,83.20
2022-08-01T12:51:41.393Z,82.80
2022-08-01T12:55:58.333Z,83.20
2022-08-01T13:00:14.274Z,82.50
2022-08-01T13:04:16.252Z,83.30
2022-08-01T13:08:31.377Z,82.80
2022-08-01T13:12:33.286Z,81.70
2022-08-01T13:16:56.823Z,81.30
2022-08-01T13:21:19.546Z,83.20
2022-08-01T13:25:23.436Z,83.50
2022-08-01T13:29:34.959Z,82.20
2022-08-01T13:33:42.736Z,81.60
2022-08-01T13:37:44.551Z,80.90
2022-08-01T13:41:47.154Z,81.10
2022-08-01T13:45:48.895Z,81.40
2022-08-01T13:49:52.195Z,82.80
2022-08-01T13:53:54.107Z,85.30
2022-08-01T13:57:55.881Z,83.50
2022-08-01T14:01:57.676Z,84.00
2022-08-01T14:05:59.461Z,84.40
2022-08-01T14:10:17.793Z,83.60
2022-08-01T14:14:21.947Z,83.70
2022-08-01T14:18:23.974Z,83.70
2022-08-01T14:22:27.819Z,84.00
2022-08-01T14:26:29.683Z,82.00
2022-08-01T14:30:31.514Z,82.20
2022-08-01T14:34:33.281Z,82.50
2022-08-01T14:38:35.101Z,83.50
2022-08-01T14:42:38.297Z,79.90
2022-08-01T14:46:57.375Z,80.00
2022-08-01T14:51:03.639Z,78.70
2022-08-01T14:55:07.561Z,79.80
2022-08-01T15:03:25.035Z,79.10
2022-08-01T15:07:37.015Z,81.60
2022-08-01T15:11:42.191Z,80.50
2022-08-01T15:15:43.961Z,79.30
2022-08-01T15:19:47.767Z,80.00
2022-08-01T15:23:49.678Z,79.30
2022-08-01T15:27:51.575Z,79.50
2022-08-01T15:31:53.365Z,78.80
2022-08-01T15:35:55.142Z,78.70
2022-08-01T15:39:56.931Z,77.60
2022-08-01T15:43:58.789Z,80.60
2022-08-01T15:48:08.107Z,77.80
2022-08-01T15:52:22.177Z,77.20
2022-08-01T15:56:29.081Z,77.70
2022-08-01T16:00:38.657Z,78.30
2022-08-01T16:04:49.243Z,78.90
2022-08-01T16:08:51.901Z,77.40
2022-08-01T16:12:53.753Z,78.80
2022-08-01T16:16:55.558Z,77.90
2022-08-01T16:20:58.904Z,78.10
2022-08-01T16:25:04.204Z,79.50
2022-08-01T16:29:06.080Z,80.80
2022-08-01T16:33:40.421Z,81.30
2022-08-01T16:37:30.144Z,80.00
2022-08-01T16:41:31.898Z,83.80
2022-08-01T16:45:42.615Z,85.00
2022-08-01T16:49:44.660Z,85.00
2022-08-01T16:53:46.420Z,83.90
2022-08-01T16:57:48.188Z,82.90
2022-08-01T17:02:00.399Z,84.70
2022-08-01T17:06:45.506Z,85.40
2022-08-01T17:10:48.598Z,85.90
2022-08-01T17:14:51.191Z,92.00
2022-08-01T17:18:53.454Z,92.70
2022-08-01T17:22:56.229Z,95.70
2022-08-01T17:27:05.050Z,95.90
2022-08-01T17:31:09.399Z,96.70
2022-08-01T17:35:26.139Z,97.00
2022-08-01T17:39:35.160Z,96.00
2022-08-01T17:43:44.286Z,99.40
2022-08-01T17:47:50.898Z,98.80
2022-08-01T17:52:03.224Z,99.90
2022-08-01T17:56:06.025Z,99.90
2022-08-01T18:00:09.714Z,99.90
2022-08-01T18:04:12.434Z,99.90
2022-08-01T18:08:14.368Z,99.90
2022-08-01T18:12:19.493Z,99.90
2022-08-01T18:16:21.289Z,99.90
2022-08-01T18:20:23.265Z,99.90
2022-08-01T18:24:25.404Z,99.90
2022-08-01T18:28:32.875Z,99.90
2022-08-01T18:32:38.492Z,99.90
2022-08-01T18:36:40.378Z,99.90
2022-08-01T18:40:42.814Z,99.90
2022-08-01T18:44:44.595Z,99.90
2022-08-01T18:48:46.511Z,99.90
2022-08-01T18:52:51.274Z,99.90
2022-08-01T18:56:53.614Z,99.90
2022-08-01T19:00:55.401Z,99.90
2022-08-01T19:04:57.295Z,99.90
2022-08-01T19:09:02.471Z,99.90
2022-08-01T19:13:07.880Z,99.90
2022-08-01T19:17:09.780Z,99.90
2022-08-01T19:21:14.336Z,99.90
2022-08-01T19:25:16.177Z,99.90
2022-08-01T19:29:22.047Z,99.90
2022-08-01T19:33:24.770Z,99.90
2022-08-01T19:37:27.507Z,99.90
2022-08-01T19:45:50.077Z,99.90
2022-08-01T19:50:00.109Z,99.90
2022-08-01T19:54:06.252Z,99.90
2022-08-01T19:58:26.303Z,99.90
2022-08-01T20:02:31.119Z,99.90
2022-08-01T20:06:40.897Z,99.90
2022-08-01T20:10:42.854Z,99.90
2022-08-01T20:14:44.953Z,99.90
2022-08-01T20:18:46.920Z,99.90
2022-08-01T20:22:49.599Z,99.90
2022-08-01T20:27:03.821Z,99.90
2022-08-01T20:31:08.982Z,99.90
2022-08-01T20:35:18.921Z,99.90
2022-08-01T20:39:43.840Z,99.90
2022-08-01T20:43:46.947Z,99.90
2022-08-01T20:47:50.401Z,99.90
2022-08-01T20:52:02.022Z,99.90
2022-08-01T20:56:30.376Z,99.90
2022-08-01T21:00:33.280Z,99.90
2022-08-01T21:05:08.643Z,99.90
2022-08-01T21:09:16.530Z,99.90
2022-08-01T21:13:32.035Z,99.90
2022-08-01T21:17:50.762Z,99.90
2022-08-01T21:22:17.638Z,99.90
2022-08-01T21:26:34.668Z,99.90
2022-08-01T21:30:36.862Z,99.90
2022-08-01T21:34:39.814Z,99.90
2022-08-01T21:38:45.249Z,99.90
2022-08-01T21:42:48.781Z,99.90
2022-08-01T21:46:52.376Z,99.90
2022-08-01T21:51:20.608Z,99.90
2022-08-01T21:55:35.638Z,99.90
2022-08-01T21:59:56.207Z,99.90
2022-08-01T22:04:02.650Z,99.90
2022-08-01T22:08:10.664Z,99.90
2022-08-01T22:12:17.883Z,99.90
2022-08-01T22:16:20.294Z,99.90
2022-08-01T22:20:24.154Z,99.90
2022-08-01T22:24:26.373Z,99.90
2022-08-01T22:28:33.385Z,99.90
2022-08-01T22:32:38.109Z,99.90
2022-08-01T22:36:39.932Z,99.90
2022-08-01T22:40:53.399Z,99.90
2022-08-01T22:45:05.677Z,99.90
2022-08-01T22:50:02.151Z,99.90
2022-08-01T22:54:05.380Z,99.90
2022-08-01T23:02:30.716Z,99.90
2022-08-01T23:06:43.002Z,99.90
2022-08-01T23:10:45.837Z,99.90
2022-08-01T23:14:51.163Z,99.90
2022-08-01T23:18:57.515Z,99.90
2022-08-01T23:23:02.085Z,99.90
2022-08-01T23:27:23.339Z,99.90
2022-08-01T23:32:00.599Z,99.90
2022-08-01T23:36:05.974Z,99.90
2022-08-01T23:40:08.417Z,99.90
2022-08-01T23:44:10.277Z,99.90
2022-08-01T23:48:12.196Z,99.90
2022-08-01T23:52:14.027Z,99.90
2022-08-01T23:56:25.348Z,99.90
